createdAt,value
2023-04-22T00:03:41.446Z,98921.03
2023-04-22T00:08:43.497Z,98930.13
2023-04-22T00:13:45.415Z,98930.13
2023-04-22T00:18:47.420Z,98931.50
2023-04-22T00:23:49.337Z,98936.97
2023-04-22T00:28:51.205Z,98936.50
2023-04-22T00:33:53.205Z,98943.66
2023-04-22T00:38:55.092Z,98946.44
2023-04-22T00:43:57.286Z,98935.19
2023-04-22T00:48:59.344Z,98938.75
2023-04-22T00:54:01.233Z,98927.53
2023-04-22T00:59:03.194Z,98932.19
2023-04-22T01:04:05.388Z,98931.50
2023-04-22T01:09:07.629Z,98932.50
2023-04-22T01:14:09.568Z,98930.97
2023-04-22T01:19:11.706Z,98931.22
2023-04-22T01:24:13.537Z,98922.56
2023-04-22T01:29:15.515Z,98921.16
2023-04-22T01:34:17.374Z,98919.44
2023-04-22T01:39:19.340Z,98924.84
2023-04-22T01:44:21.238Z,98918.09
2023-04-22T01:49:23.112Z,98920.06
2023-04-22T01:54:25.117Z,98920.25
2023-04-22T01:59:27.136Z,98927.28
2023-04-22T02:04:29.073Z,98932.63
2023-04-22T02:09:30.940Z,98935.25
2023-04-22T02:14:32.881Z,98934.34
2023-04-22T02:19:34.886Z,98923.84
2023-04-22T02:24:36.888Z,98922.88
2023-04-22T02:29:39.067Z,98921.00
2023-04-22T02:34:41.386Z,98913.09
2023-04-22T02:39:43.382Z,98921.69
2023-04-22T02:44:45.426Z,98927.50
2023-04-22T02:49:47.323Z,98921.16
2023-04-22T02:54:49.252Z,98931.38
2023-04-22T02:59:51.376Z,98922.94
2023-04-22T03:04:53.321Z,98924.53
2023-04-22T03:09:55.252Z,98900.53
2023-04-22T03:14:57.160Z,98906.72
2023-04-22T03:19:59.048Z,98914.94
2023-04-22T03:25:01.235Z,98903.97
2023-04-22T03:30:04.599Z,98904.50
2023-04-22T03:35:07.989Z,98904.72
2023-04-22T03:40:11.271Z,98905.81
2023-04-22T03:45:14.039Z,98908.63
2023-04-22T03:50:15.977Z,98908.38
2023-04-22T03:55:17.905Z,98914.31
2023-04-22T04:00:19.772Z,98912.00
2023-04-22T04:05:21.780Z,98911.19
2023-04-22T04:10:23.716Z,98911.13
2023-04-22T04:15:25.664Z,98913.75
2023-04-22T04:20:27.560Z,98918.84
2023-04-22T04:25:29.490Z,98924.06
2023-04-22T04:30:33.546Z,98934.84
2023-04-22T04:35:36.765Z,98949.06
2023-04-22T04:40:38.755Z,98949.03
2023-04-22T04:45:40.709Z,98951.63
2023-04-22T04:50:42.979Z,98956.63
2023-04-22T04:55:44.852Z,98950.56
2023-04-22T05:00:47.953Z,98953.69
2023-04-22T05:05:49.852Z,98955.75
2023-04-22T05:10:51.917Z,98953.69
2023-04-22T05:15:53.855Z,98963.25
2023-04-22T05:20:55.866Z,98961.72
2023-04-22T05:25:58.530Z,98953.03
2023-04-22T05:31:00.381Z,98939.75
2023-04-22T05:36:02.236Z,98916.13
2023-04-22T05:41:04.416Z,98917.19
2023-04-22T05:46:06.373Z,98912.53
2023-04-22T05:51:08.483Z,98914.91
2023-04-22T05:56:10.465Z,98916.19
2023-04-22T06:01:12.625Z,98921.69
2023-04-22T06:06:14.534Z,98927.06
2023-04-22T06:11:16.553Z,98923.59
2023-04-22T06:16:18.394Z,98928.28
2023-04-22T06:21:21.107Z,98919.47
2023-04-22T06:26:23.191Z,98914.88
2023-04-22T06:31:25.136Z,98921.38
2023-04-22T06:36:29.745Z,98909.00
2023-04-22T06:41:32.585Z,98903.50
2023-04-22T06:46:34.483Z,98902.22
2023-04-22T06:51:36.629Z,98902.72
2023-04-22T06:56:38.686Z,98890.69
2023-04-22T07:01:40.590Z,98886.94
2023-04-22T07:06:43.322Z,98889.88
2023-04-22T07:11:45.340Z,98915.13
2023-04-22T07:16:47.507Z,98926.69
2023-04-22T07:21:49.586Z,98931.16
2023-04-22T07:26:51.496Z,98940.38
2023-04-22T07:31:53.574Z,98942.28
2023-04-22T07:36:55.530Z,98947.97
2023-04-22T07:41:57.282Z,98948.44
2023-04-22T07:47:00.025Z,98954.00
2023-04-22T07:52:02.086Z,98944.72
2023-04-22T07:57:05.406Z,98941.41
2023-04-22T08:02:07.415Z,98937.78
2023-04-22T08:07:26.838Z,98944.25
2023-04-22T08:12:32.158Z,98940.84
2023-04-22T08:17:34.289Z,98941.97
2023-04-22T08:22:36.283Z,98943.06
2023-04-22T08:27:38.418Z,98935.50
2023-04-22T08:32:41.226Z,98942.63
2023-04-22T08:37:43.634Z,98933.56
2023-04-22T08:42:45.605Z,98947.88
2023-04-22T08:47:48.979Z,98949.53
2023-04-22T08:52:50.950Z,98947.69
2023-04-22T08:57:52.924Z,98943.03
2023-04-22T09:02:54.910Z,98945.88
2023-04-22T09:07:57.822Z,98930.72
2023-04-22T09:12:59.702Z,98931.00
2023-04-22T09:18:02.985Z,98945.19
2023-04-22T09:23:05.003Z,98940.13
2023-04-22T09:28:07.375Z,98931.59
2023-04-22T09:33:09.222Z,98937.63
2023-04-22T09:38:12.145Z,98914.44
2023-04-22T09:43:15.210Z,98932.84
2023-04-22T09:48:20.027Z,98927.47
2023-04-22T09:53:22.384Z,98924.81
2023-04-22T09:58:24.326Z,98925.72
2023-04-22T10:03:26.280Z,98927.75
2023-04-22T10:08:28.090Z,98916.16
2023-04-22T10:13:30.028Z,98905.97
2023-04-22T10:18:32.055Z,98907.25
2023-04-22T10:23:33.936Z,98907.41
2023-04-22T10:28:35.821Z,98919.66
2023-04-22T10:33:37.987Z,98909.97
2023-04-22T10:38:42.609Z,98911.03
2023-04-22T10:43:46.048Z,98915.25
2023-04-22T10:48:48.757Z,98910.59
2023-04-22T10:53:50.647Z,98889.59
2023-04-22T10:58:52.533Z,98894.91
2023-04-22T11:03:54.540Z,98888.94
2023-04-22T11:09:10.410Z,98911.59
2023-04-22T11:14:12.243Z,98925.53
2023-04-22T11:19:14.094Z,98904.53
2023-04-22T11:24:18.393Z,98895.53
2023-04-22T11:29:20.220Z,98879.78
2023-04-22T11:34:22.074Z,98881.16
2023-04-22T11:39:23.885Z,98884.47
2023-04-22T11:44:25.704Z,98894.97
2023-04-22T11:49:27.610Z,98896.69
2023-04-22T11:54:36.417Z,98894.13
2023-04-22T11:59:38.444Z,98885.25
2023-04-22T12:04:40.601Z,98877.22
2023-04-22T12:09:42.510Z,98872.50
2023-04-22T12:14:45.648Z,98878.41
2023-04-22T12:19:47.744Z,98884.56
2023-04-22T12:24:49.598Z,98886.59
2023-04-22T12:29:52.608Z,98878.47
2023-04-22T12:34:54.462Z,98864.53
2023-04-22T12:39:56.332Z,98861.78
2023-04-22T12:44:58.200Z,98853.72
2023-04-22T12:50:00.065Z,98851.06
2023-04-22T12:55:02.090Z,98846.94
2023-04-22T13:00:06.987Z,98851.13
2023-04-22T13:05:09.286Z,98843.84
2023-04-22T13:10:11.770Z,98854.94
2023-04-22T13:15:13.631Z,98851.19
2023-04-22T13:20:15.535Z,98862.09
2023-04-22T13:25:17.395Z,98855.81
2023-04-22T13:30:19.297Z,98855.31
2023-04-22T13:35:21.213Z,98858.50
2023-04-22T13:40:23.224Z,98855.44
2023-04-22T13:45:25.204Z,98859.72
2023-04-22T13:50:27.133Z,98862.94
2023-04-22T13:55:28.999Z,98863.94
2023-04-22T14:00:30.975Z,98855.34
2023-04-22T14:05:32.853Z,98858.38
2023-04-22T14:10:34.785Z,98850.44
2023-04-22T14:15:36.600Z,98848.44
2023-04-22T14:20:38.710Z,98857.34
2023-04-22T14:25:40.629Z,98857.59
2023-04-22T14:30:42.592Z,98865.75
2023-04-22T14:35:44.448Z,98876.28
2023-04-22T14:40:46.634Z,98886.44
2023-04-22T14:45:48.551Z,98886.38
2023-04-22T14:50:50.603Z,98901.72
2023-04-22T14:55:52.532Z,98902.25
2023-04-22T15:00:54.430Z,98897.66
2023-04-22T15:05:56.340Z,98898.78
2023-04-22T15:10:58.194Z,98904.22
2023-04-22T15:16:00.172Z,98910.28
2023-04-22T15:21:02.047Z,98909.00
2023-04-22T15:26:03.979Z,98912.28
2023-04-22T15:31:05.786Z,98919.56
2023-04-22T15:36:07.648Z,98913.50
2023-04-22T15:41:09.439Z,98919.50
2023-04-22T15:46:11.213Z,98926.59
2023-04-22T15:51:16.493Z,98924.41
2023-04-22T15:56:18.257Z,98919.09
2023-04-22T16:01:20.250Z,98909.66
2023-04-22T16:06:22.240Z,98907.53
2023-04-22T16:11:24.043Z,98912.53
2023-04-22T16:16:26.216Z,98915.94
2023-04-22T16:21:28.059Z,98911.16
2023-04-22T16:26:29.820Z,98917.94
2023-04-22T16:31:31.623Z,98914.88
2023-04-22T16:36:33.401Z,98920.81
2023-04-22T16:41:35.186Z,98920.38
2023-04-22T16:46:37.130Z,98925.16
2023-04-22T16:51:39.146Z,98933.53
2023-04-22T16:56:41.009Z,98933.97
2023-04-22T17:01:42.885Z,98939.78
2023-04-22T17:06:44.686Z,98946.34
2023-04-22T17:11:46.475Z,98952.88
2023-04-22T17:16:48.254Z,98946.28
2023-04-22T17:21:50.027Z,98957.13
2023-04-22T17:26:51.788Z,98960.84
2023-04-22T17:31:53.662Z,98967.34
2023-04-22T17:36:55.464Z,98970.41
2023-04-22T17:41:57.283Z,98962.00
2023-04-22T17:46:59.132Z,98966.69
2023-04-22T17:52:00.960Z,98980.09
2023-04-22T17:57:02.732Z,98989.09
2023-04-22T18:02:04.536Z,98990.06
2023-04-22T18:07:06.340Z,98992.22
2023-04-22T18:12:08.154Z,98993.47
2023-04-22T18:17:10.022Z,98996.28
2023-04-22T18:22:12.087Z,99000.94
2023-04-22T18:27:13.902Z,99004.66
2023-04-22T18:32:15.732Z,98997.03
2023-04-22T18:37:17.584Z,99007.06
2023-04-22T18:42:19.325Z,99002.09
2023-04-22T18:47:21.174Z,99008.50
2023-04-22T18:52:22.961Z,99007.09
2023-04-22T18:57:24.788Z,99012.56
2023-04-22T19:02:26.847Z,99011.13
2023-04-22T19:07:28.751Z,99013.31
2023-04-22T19:12:30.531Z,99021.91
2023-04-22T19:17:32.420Z,99025.13
2023-04-22T19:22:34.282Z,99023.56
2023-04-22T19:27:36.068Z,99025.56
2023-04-22T19:32:38.006Z,99029.19
2023-04-22T19:37:39.824Z,99033.69
2023-04-22T19:42:41.895Z,99029.41
2023-04-22T19:47:43.859Z,99038.41
2023-04-22T19:52:45.897Z,99038.66
2023-04-22T19:57:47.692Z,99043.28
2023-04-22T20:02:49.758Z,99041.66
2023-04-22T20:07:51.586Z,99038.22
2023-04-22T20:12:53.735Z,99036.56
2023-04-22T20:17:55.775Z,99046.22
2023-04-22T20:22:57.742Z,99046.94
2023-04-22T20:27:59.713Z,99048.94
2023-04-22T20:33:01.728Z,99049.19
2023-04-22T20:38:03.840Z,99051.91
2023-04-22T20:43:05.780Z,99058.25
2023-04-22T20:48:07.721Z,99056.75
2023-04-22T20:53:09.671Z,99058.00
2023-04-22T20:58:11.517Z,99065.38
2023-04-22T21:03:13.938Z,99066.44
2023-04-22T21:08:19.680Z,99066.03
2023-04-22T21:13:21.863Z,99071.56
2023-04-22T21:18:24.597Z,99073.53
2023-04-22T21:23:26.676Z,99072.22
2023-04-22T21:28:28.660Z,99073.44
2023-04-22T21:33:30.588Z,99086.66
2023-04-22T21:38:32.416Z,99073.69
2023-04-22T21:43:34.399Z,99080.06
2023-04-22T21:48:36.252Z,99079.44
2023-04-22T21:53:38.422Z,99075.50
2023-04-22T21:58:40.303Z,99084.91
2023-04-22T22:03:42.289Z,99088.72
2023-04-22T22:08:44.244Z,99094.97
2023-04-22T22:13:46.020Z,99096.75
2023-04-22T22:18:47.934Z,99105.66
2023-04-22T22:23:49.762Z,99109.50
2023-04-22T22:28:51.652Z,99115.19
2023-04-22T22:33:53.457Z,99104.06
2023-04-22T22:38:55.384Z,99114.91
2023-04-22T22:43:57.228Z,99115.84
2023-04-22T22:48:59.013Z,99112.41
2023-04-22T22:54:00.946Z,99109.09
2023-04-22T22:59:02.840Z,99123.22
2023-04-22T23:04:04.998Z,99120.88
2023-04-22T23:09:07.001Z,99128.16
2023-04-22T23:14:08.906Z,99126.66
2023-04-22T23:19:11.014Z,99123.44
2023-04-22T23:24:14.201Z,99128.06
2023-04-22T23:29:16.329Z,99125.59
2023-04-22T23:34:18.830Z,99134.47
2023-04-22T23:39:20.726Z,99138.06
2023-04-22T23:44:22.595Z,99138.34
2023-04-22T23:49:24.417Z,99147.13
2023-04-22T23:54:26.941Z,99147.22
2023-04-22T23:59:29.102Z,99152.66
